Terminal Aerodrome Forecast
Issued by NWS

Home | Current Version | Previous Version | Text Only | Print | Product List | Glossary On
Versions: 1 2 3 4 5 6 7 8 9 10 11 12 13 14 15 16 17
000
FTUS44 KLIX 180539
TAFMCB
TAF
KMCB 180539Z 1806/1906 00000KT P6SM FEW120 OVC200
     FM180900 07004KT 5SM -RA BR BKN020
      TEMPO 1812/1816 2SM TSRA OVC010CB
     FM181600 15005KT 4SM SHRA BKN020
      TEMPO 1816/1820 VRB15G30KT 1SM TSRA BR BKN015CB
     FM182200 20006KT 4SM SHRA BKN030=

USA.gov is the U.S. government's official web portal to all federal, state and local government web resources and services.